createdAt,value
2018-10-09T00:00:13.224Z,91.40
2018-10-09T00:02:41.859Z,90.90
2018-10-09T00:05:08.381Z,91.10
2018-10-09T00:07:36.802Z,90.60
2018-10-09T00:10:03.842Z,91.00
2018-10-09T00:12:30.325Z,91.10
2018-10-09T00:14:57.589Z,91.10
2018-10-09T00:17:25.710Z,90.90
2018-10-09T00:19:52.472Z,90.80
2018-10-09T00:22:18.960Z,90.70
2018-10-09T00:24:45.847Z,91.60
2018-10-09T00:27:12.378Z,92.10
2018-10-09T00:29:40.992Z,92.40
2018-10-09T00:34:40.240Z,91.80
2018-10-09T00:37:06.755Z,91.50
2018-10-09T00:39:33.198Z,91.30
2018-10-09T00:42:00.192Z,91.10
2018-10-09T00:44:26.687Z,90.90
2018-10-09T00:46:53.205Z,90.70
2018-10-09T00:49:22.835Z,91.80
2018-10-09T00:51:49.422Z,91.00
2018-10-09T01:14:31.919Z,91.10
2018-10-09T01:16:58.352Z,90.90
2018-10-09T01:19:24.816Z,91.50
2018-10-09T01:21:51.476Z,91.50
2018-10-09T01:24:17.944Z,91.50
2018-10-09T01:26:44.391Z,90.90
2018-10-09T01:29:10.901Z,90.60
2018-10-09T01:31:37.552Z,90.70
2018-10-09T01:34:04.103Z,90.90
2018-10-09T01:36:30.758Z,90.50
2018-10-09T01:38:57.367Z,90.10
2018-10-09T01:41:25.176Z,91.50
2018-10-09T01:43:53.224Z,91.10
2018-10-09T01:46:19.885Z,91.30
2018-10-09T01:48:46.603Z,91.40
2018-10-09T01:51:14.185Z,92.90
2018-10-09T01:53:40.887Z,93.10
2018-10-09T01:56:08.623Z,92.90
2018-10-09T01:58:35.645Z,92.50
2018-10-09T02:01:02.962Z,92.20
2018-10-09T02:03:30.182Z,92.20
2018-10-09T02:05:56.705Z,91.90
2018-10-09T02:08:23.249Z,91.50
2018-10-09T02:10:50.888Z,90.70
2018-10-09T02:13:17.665Z,90.80
2018-10-09T02:15:44.956Z,90.90
2018-10-09T02:18:12.053Z,90.60
2018-10-09T02:20:40.513Z,90.60
2018-10-09T02:23:08.210Z,90.30
2018-10-09T02:25:35.840Z,90.90
2018-10-09T02:28:02.607Z,91.20
2018-10-09T02:30:29.120Z,90.90
2018-10-09T02:32:56.054Z,91.00
2018-10-09T02:35:22.613Z,90.70
2018-10-09T02:37:49.100Z,90.50
2018-10-09T02:40:15.571Z,90.90
2018-10-09T02:45:14.132Z,92.50
2018-10-09T02:47:40.769Z,92.00
2018-10-09T02:50:09.802Z,91.80
2018-10-09T02:52:38.334Z,92.30
2018-10-09T02:55:05.957Z,92.60
2018-10-09T02:57:32.599Z,93.20
2018-10-09T02:59:59.278Z,92.60
2018-10-09T03:02:25.779Z,92.60
2018-10-09T03:04:52.380Z,92.30
2018-10-09T03:07:19.251Z,91.20
2018-10-09T03:09:45.930Z,91.70
2018-10-09T03:12:12.414Z,91.70
2018-10-09T03:14:40.021Z,91.10
2018-10-09T03:17:06.730Z,91.40
2018-10-09T03:19:33.214Z,90.70
2018-10-09T03:21:59.708Z,90.70
2018-10-09T03:24:26.193Z,90.60
2018-10-09T03:26:52.639Z,90.70
2018-10-09T03:29:19.184Z,90.70
2018-10-09T03:31:45.684Z,90.70
2018-10-09T03:34:12.195Z,90.30
2018-10-09T03:36:38.851Z,90.10
2018-10-09T03:39:05.352Z,89.40
2018-10-09T03:41:31.940Z,89.90
2018-10-09T03:43:58.557Z,89.50
2018-10-09T03:46:25.192Z,89.30
2018-10-09T03:48:51.867Z,90.40
2018-10-09T03:51:18.596Z,90.00
2018-10-09T03:53:45.133Z,90.40
2018-10-09T03:56:11.654Z,90.10
2018-10-09T03:58:38.141Z,90.20
2018-10-09T04:01:04.579Z,89.70
2018-10-09T04:03:31.139Z,88.80
2018-10-09T04:05:57.652Z,89.00
2018-10-09T04:08:24.674Z,88.70
2018-10-09T04:10:51.182Z,88.90
2018-10-09T04:13:17.735Z,90.30
2018-10-09T04:15:44.803Z,89.40
2018-10-09T04:18:11.674Z,89.40
2018-10-09T04:20:38.189Z,90.00
2018-10-09T04:23:04.721Z,89.20
2018-10-09T04:25:31.179Z,89.10
2018-10-09T04:27:57.731Z,89.20
2018-10-09T04:30:24.283Z,89.20
2018-10-09T04:32:50.787Z,89.30
2018-10-09T04:35:17.401Z,89.50
2018-10-09T04:37:44.017Z,90.00
2018-10-09T04:40:11.214Z,89.70
2018-10-09T04:42:37.749Z,90.00
2018-10-09T04:45:04.296Z,90.40
2018-10-09T04:47:30.793Z,90.20
2018-10-09T04:49:57.274Z,90.00
2018-10-09T04:52:24.516Z,89.60
2018-10-09T04:54:51.082Z,89.90
2018-10-09T04:57:17.608Z,89.50
2018-10-09T04:59:44.250Z,90.30
2018-10-09T05:02:11.351Z,90.10
2018-10-09T05:04:37.833Z,90.10
2018-10-09T05:07:04.499Z,90.50
2018-10-09T05:09:30.980Z,90.60
2018-10-09T05:11:57.452Z,90.50
2018-10-09T05:14:23.946Z,90.10
2018-10-09T05:16:50.458Z,90.40
2018-10-09T05:19:16.966Z,91.00
2018-10-09T05:21:43.448Z,90.80
2018-10-09T05:24:09.925Z,91.00
2018-10-09T05:26:36.879Z,91.50
2018-10-09T05:29:03.351Z,91.30
2018-10-09T05:31:30.002Z,91.00
2018-10-09T05:33:56.577Z,91.20
2018-10-09T05:36:23.093Z,92.00
2018-10-09T05:38:49.931Z,91.60
2018-10-09T05:41:16.412Z,91.50
2018-10-09T05:43:42.879Z,92.60
2018-10-09T05:46:09.507Z,92.80
2018-10-09T05:48:36.766Z,92.40
2018-10-09T05:51:03.351Z,91.90
2018-10-09T05:53:29.817Z,91.90
2018-10-09T05:55:56.288Z,92.20
2018-10-09T05:58:22.777Z,93.20
2018-10-09T06:00:49.258Z,92.20
2018-10-09T06:03:15.822Z,91.80
2018-10-09T06:05:42.627Z,91.50
2018-10-09T06:08:09.289Z,91.90
2018-10-09T06:10:35.777Z,92.30
2018-10-09T06:13:02.245Z,93.00
2018-10-09T06:15:28.809Z,92.70
2018-10-09T06:17:55.478Z,92.40
2018-10-09T06:20:22.010Z,92.90
2018-10-09T06:22:48.549Z,92.90
2018-10-09T06:25:15.011Z,92.50
2018-10-09T06:27:42.266Z,92.10
2018-10-09T06:30:08.733Z,92.20
2018-10-09T06:32:35.240Z,91.60
2018-10-09T06:35:05.701Z,91.60
2018-10-09T06:37:32.270Z,92.20
2018-10-09T06:39:58.836Z,92.30
2018-10-09T06:44:57.774Z,91.90
2018-10-09T06:47:24.388Z,91.90
2018-10-09T06:49:51.061Z,92.10
2018-10-09T06:52:17.593Z,92.80
2018-10-09T06:54:44.504Z,92.30
2018-10-09T06:57:11.161Z,91.70
2018-10-09T06:59:37.665Z,92.20
2018-10-09T07:02:04.260Z,93.00
2018-10-09T07:04:30.870Z,92.90
2018-10-09T07:06:57.504Z,93.20
2018-10-09T07:09:23.994Z,92.80
2018-10-09T07:11:50.694Z,92.40
2018-10-09T07:14:18.033Z,93.00
2018-10-09T07:16:44.603Z,93.00
2018-10-09T07:19:11.168Z,92.90
2018-10-09T07:21:37.655Z,92.70
2018-10-09T07:24:04.118Z,92.50
2018-10-09T07:26:30.637Z,91.80
2018-10-09T07:28:57.331Z,91.20
2018-10-09T07:31:23.808Z,91.10
2018-10-09T07:33:50.340Z,91.40
2018-10-09T07:38:48.814Z,91.80
2018-10-09T07:41:15.312Z,91.30
2018-10-09T07:43:41.773Z,91.30
2018-10-09T07:46:08.406Z,91.30
2018-10-09T07:48:34.944Z,91.00
2018-10-09T07:51:01.403Z,90.90
2018-10-09T07:53:27.920Z,90.80
2018-10-09T07:55:55.191Z,91.90
2018-10-09T07:58:21.658Z,92.90
2018-10-09T08:03:20.655Z,92.10
2018-10-09T08:05:47.217Z,93.00
2018-10-09T08:08:13.797Z,92.50
2018-10-09T08:10:40.342Z,91.40
2018-10-09T08:13:07.165Z,91.30
2018-10-09T08:15:33.700Z,91.10
2018-10-09T08:18:00.195Z,91.10
2018-10-09T08:20:26.669Z,90.50
2018-10-09T08:22:53.213Z,90.60
2018-10-09T08:25:19.810Z,91.20
2018-10-09T08:27:46.293Z,92.10
2018-10-09T08:30:12.802Z,92.00
2018-10-09T08:35:13.615Z,91.30
2018-10-09T08:40:13.145Z,91.30
2018-10-09T08:42:39.721Z,91.50
2018-10-09T08:45:06.596Z,92.30
2018-10-09T08:47:33.104Z,91.80
2018-10-09T08:49:59.555Z,91.50
2018-10-09T08:52:26.001Z,91.90
2018-10-09T08:54:52.785Z,90.90
2018-10-09T08:57:19.463Z,90.80
2018-10-09T08:59:46.050Z,90.40
2018-10-09T09:02:12.550Z,90.30
2018-10-09T09:04:39.079Z,90.40
2018-10-09T09:07:05.560Z,90.00
2018-10-09T09:09:32.294Z,90.60
2018-10-09T09:11:58.921Z,90.20
2018-10-09T09:14:25.534Z,89.60
2018-10-09T09:16:52.994Z,89.00
2018-10-09T09:19:19.470Z,86.00
2018-10-09T09:21:46.010Z,86.90
2018-10-09T09:24:12.540Z,85.60
2018-10-09T09:26:39.630Z,84.80
2018-10-09T09:29:06.286Z,82.70
2018-10-09T09:31:32.835Z,84.50
2018-10-09T09:33:59.424Z,84.10
2018-10-09T09:36:25.931Z,81.10
2018-10-09T09:38:53.226Z,80.00
2018-10-09T09:41:19.871Z,80.00
2018-10-09T09:43:47.434Z,80.90
2018-10-09T09:46:14.002Z,78.70
2018-10-09T09:48:40.711Z,79.90
2018-10-09T09:51:07.289Z,79.50
2018-10-09T09:53:36.878Z,76.20
2018-10-09T09:56:03.387Z,76.30
2018-10-09T09:58:29.985Z,74.70
2018-10-09T10:00:58.931Z,73.30
2018-10-09T10:03:25.457Z,75.40
2018-10-09T10:05:52.078Z,74.20
2018-10-09T10:08:19.675Z,74.30
2018-10-09T10:10:46.281Z,74.30
2018-10-09T10:13:12.732Z,71.80
2018-10-09T10:15:39.421Z,70.90
2018-10-09T10:18:06.132Z,73.30
2018-10-09T10:20:32.626Z,73.70
2018-10-09T10:22:59.195Z,72.90
2018-10-09T10:25:25.856Z,72.00
2018-10-09T10:27:52.485Z,72.70
2018-10-09T10:30:19.200Z,69.10
2018-10-09T10:32:45.675Z,69.80
2018-10-09T10:35:12.202Z,70.10
2018-10-09T10:37:39.286Z,69.30
2018-10-09T10:40:05.745Z,69.70
2018-10-09T10:42:32.182Z,70.60
2018-10-09T10:44:58.829Z,69.50
2018-10-09T10:47:25.357Z,72.40
2018-10-09T10:49:51.850Z,69.10
2018-10-09T10:52:18.386Z,67.70
2018-10-09T10:54:45.047Z,68.40
2018-10-09T10:57:12.302Z,66.20
2018-10-09T11:02:10.949Z,69.60
2018-10-09T11:04:37.455Z,63.90
2018-10-09T11:07:04.089Z,64.90
2018-10-09T11:09:30.636Z,66.40
2018-10-09T11:11:57.161Z,64.00
2018-10-09T11:14:27.914Z,63.40
2018-10-09T11:16:54.588Z,61.80
2018-10-09T11:19:21.418Z,64.20
2018-10-09T11:21:47.958Z,63.80
2018-10-09T11:24:21.279Z,66.00
2018-10-09T11:26:50.033Z,65.50
2018-10-09T11:29:16.743Z,64.30
2018-10-09T11:31:43.263Z,64.40
2018-10-09T11:34:09.801Z,64.80
2018-10-09T11:36:36.333Z,65.50
2018-10-09T11:39:02.807Z,63.30
2018-10-09T11:41:29.250Z,64.50
2018-10-09T11:43:55.920Z,61.90
2018-10-09T11:46:22.421Z,61.50
2018-10-09T11:48:48.969Z,59.10
2018-10-09T11:51:15.434Z,59.50
2018-10-09T11:53:41.948Z,62.00
2018-10-09T11:56:08.401Z,62.50
2018-10-09T11:58:34.993Z,60.80
2018-10-09T12:01:01.613Z,60.40
2018-10-09T12:03:29.212Z,61.70
2018-10-09T12:05:55.843Z,59.70
2018-10-09T12:08:22.420Z,60.50
2018-10-09T12:10:48.895Z,60.00
2018-10-09T12:13:15.367Z,61.20
2018-10-09T12:15:41.903Z,59.70
2018-10-09T12:18:08.551Z,59.00
2018-10-09T12:20:35.203Z,59.70
2018-10-09T12:23:01.722Z,58.70
2018-10-09T12:25:29.275Z,57.60
2018-10-09T12:27:55.857Z,59.70
2018-10-09T12:30:22.331Z,58.50
2018-10-09T12:32:48.829Z,57.80
2018-10-09T12:35:18.288Z,58.20
2018-10-09T12:37:44.853Z,56.30
2018-10-09T12:40:11.369Z,55.30
2018-10-09T12:42:37.876Z,55.90
2018-10-09T12:45:08.214Z,55.90
2018-10-09T12:47:34.664Z,55.90
2018-10-09T12:50:01.206Z,56.20
2018-10-09T12:52:27.890Z,56.60
2018-10-09T12:54:54.844Z,57.00
2018-10-09T12:57:21.401Z,56.20
2018-10-09T12:59:47.905Z,57.20
2018-10-09T13:02:14.444Z,56.90
2018-10-09T13:04:40.929Z,56.60
2018-10-09T13:07:07.430Z,57.30
2018-10-09T13:09:34.063Z,57.10
2018-10-09T13:12:00.728Z,58.20
2018-10-09T13:14:27.265Z,57.80
2018-10-09T13:16:53.769Z,57.50
2018-10-09T13:19:20.305Z,58.40
2018-10-09T13:21:47.027Z,58.40
2018-10-09T13:24:13.428Z,58.30
2018-10-09T13:26:39.884Z,57.10
2018-10-09T13:29:08.157Z,58.40
2018-10-09T13:31:34.693Z,58.40
2018-10-09T13:34:02.306Z,58.30
2018-10-09T13:36:29.222Z,59.00
2018-10-09T13:38:55.692Z,58.40
2018-10-09T13:41:22.131Z,59.10
2018-10-09T13:43:48.632Z,59.40
2018-10-09T13:46:15.225Z,57.50
2018-10-09T13:48:41.679Z,56.70
2018-10-09T13:51:08.210Z,56.10
2018-10-09T13:53:34.680Z,56.60
2018-10-09T13:56:01.216Z,57.80
2018-10-09T13:58:27.697Z,56.60
2018-10-09T14:00:54.153Z,56.40
2018-10-09T14:03:20.655Z,58.10
2018-10-09T14:08:18.691Z,57.90
2018-10-09T14:10:46.151Z,57.70
2018-10-09T14:13:12.620Z,57.80
2018-10-09T14:15:39.094Z,57.50
2018-10-09T14:18:05.622Z,58.10
2018-10-09T14:20:35.994Z,57.10
2018-10-09T14:23:02.477Z,57.00
2018-10-09T14:25:29.114Z,57.50
2018-10-09T14:27:55.602Z,56.70
2018-10-09T14:30:23.733Z,57.50
2018-10-09T14:32:50.192Z,57.60
2018-10-09T14:35:16.643Z,57.50
2018-10-09T14:40:15.018Z,58.20
2018-10-09T14:42:41.485Z,58.30
2018-10-09T14:45:08.035Z,57.20
2018-10-09T14:47:34.635Z,58.30
2018-10-09T14:50:01.099Z,58.30
2018-10-09T14:52:27.586Z,58.10
2018-10-09T14:54:54.090Z,59.20
2018-10-09T14:57:20.628Z,58.60
2018-10-09T14:59:47.130Z,58.40
2018-10-09T15:02:13.571Z,59.00
2018-10-09T15:04:40.023Z,58.80
2018-10-09T15:07:06.542Z,58.70
2018-10-09T15:09:33.118Z,58.80
2018-10-09T15:12:00.140Z,58.80
2018-10-09T15:14:26.732Z,58.60
2018-10-09T15:16:53.267Z,59.70
2018-10-09T15:19:19.902Z,59.10
2018-10-09T15:21:46.338Z,59.50
2018-10-09T15:24:12.858Z,59.00
2018-10-09T15:26:40.321Z,59.10
2018-10-09T15:29:06.822Z,60.50
2018-10-09T15:31:33.484Z,60.30
2018-10-09T15:34:00.043Z,60.60
2018-10-09T15:36:26.488Z,61.20
2018-10-09T15:38:53.231Z,60.20
2018-10-09T15:41:19.840Z,60.30
2018-10-09T15:43:46.393Z,60.60
2018-10-09T15:46:12.886Z,61.10
2018-10-09T15:48:39.479Z,60.50
2018-10-09T15:51:05.981Z,61.90
2018-10-09T15:53:32.488Z,61.50
2018-10-09T15:55:58.992Z,62.20
2018-10-09T15:58:25.645Z,62.00
2018-10-09T16:00:53.280Z,62.20
2018-10-09T16:03:19.760Z,62.40
2018-10-09T16:05:46.213Z,62.20
2018-10-09T16:08:12.729Z,62.70
2018-10-09T16:10:39.199Z,63.70
2018-10-09T16:13:05.676Z,64.10
2018-10-09T16:15:32.316Z,64.50
2018-10-09T16:17:58.766Z,65.20
2018-10-09T16:20:25.325Z,65.30
2018-10-09T16:22:51.836Z,66.30
2018-10-09T16:25:18.318Z,68.60
2018-10-09T16:27:44.813Z,69.60
2018-10-09T16:30:12.153Z,68.60
2018-10-09T16:32:38.808Z,67.60
2018-10-09T16:35:05.329Z,68.20
2018-10-09T16:37:33.370Z,69.00
2018-10-09T16:39:59.878Z,69.70
2018-10-09T16:42:26.309Z,68.80
2018-10-09T16:44:52.823Z,69.00
2018-10-09T16:47:22.661Z,70.10
2018-10-09T16:49:49.478Z,70.70
2018-10-09T16:52:15.995Z,70.90
2018-10-09T16:54:42.452Z,72.00
2018-10-09T16:57:09.092Z,71.40
2018-10-09T16:59:35.672Z,71.50
2018-10-09T17:02:02.124Z,71.50
2018-10-09T17:04:28.692Z,72.00
2018-10-09T17:06:55.184Z,72.10
2018-10-09T17:09:21.982Z,73.10
2018-10-09T17:11:48.437Z,72.90
2018-10-09T17:14:15.045Z,72.90
2018-10-09T17:16:41.508Z,73.20
2018-10-09T17:19:07.947Z,73.60
2018-10-09T17:21:34.462Z,75.50
2018-10-09T17:24:02.100Z,76.90
2018-10-09T17:26:28.602Z,76.80
2018-10-09T17:28:55.150Z,76.50
2018-10-09T17:31:21.727Z,76.10
2018-10-09T17:33:48.248Z,76.30
2018-10-09T17:36:14.797Z,77.00
2018-10-09T17:38:41.357Z,76.70
2018-10-09T17:41:07.852Z,76.20
2018-10-09T17:43:34.655Z,76.40
2018-10-09T17:46:01.155Z,77.00
2018-10-09T17:48:27.682Z,77.50
2018-10-09T17:50:54.989Z,78.00
2018-10-09T17:53:21.490Z,80.10
2018-10-09T17:55:47.973Z,80.90
2018-10-09T17:58:15.853Z,80.40
2018-10-09T18:00:42.317Z,80.30
2018-10-09T18:03:08.875Z,79.90
2018-10-09T18:05:35.478Z,78.90
2018-10-09T18:10:39.696Z,81.60
2018-10-09T18:13:06.173Z,83.30
2018-10-09T18:15:32.647Z,82.10
2018-10-09T18:20:32.925Z,80.60
2018-10-09T18:22:59.520Z,79.70
2018-10-09T18:25:26.100Z,80.50
2018-10-09T18:27:52.571Z,80.10
2018-10-09T18:30:19.065Z,80.90
2018-10-09T18:32:45.654Z,80.80
2018-10-09T18:35:12.156Z,80.90
2018-10-09T18:37:38.616Z,81.20
2018-10-09T18:40:05.070Z,83.70
2018-10-09T18:42:31.607Z,84.00
2018-10-09T18:44:58.289Z,84.40
2018-10-09T18:47:24.774Z,84.50
2018-10-09T18:49:51.234Z,84.00
2018-10-09T18:52:18.695Z,84.40
2018-10-09T18:54:45.155Z,83.80
2018-10-09T18:57:11.629Z,83.80
2018-10-09T18:59:38.149Z,82.50
2018-10-09T19:02:04.611Z,82.80
2018-10-09T19:04:31.117Z,82.80
2018-10-09T19:06:57.800Z,83.20
2018-10-09T19:09:24.441Z,83.40
2018-10-09T19:11:50.970Z,84.50
2018-10-09T19:14:17.465Z,84.10
2018-10-09T19:16:44.008Z,83.90
2018-10-09T19:19:10.598Z,85.20
2018-10-09T19:21:37.199Z,85.70
2018-10-09T19:24:03.652Z,84.80
2018-10-09T19:26:30.135Z,84.10
2018-10-09T19:28:56.679Z,86.40
2018-10-09T19:31:23.176Z,87.40
2018-10-09T19:33:50.359Z,85.90
2018-10-09T19:36:16.947Z,84.70
2018-10-09T19:38:46.489Z,84.50
2018-10-09T19:41:13.029Z,87.40
2018-10-09T19:43:39.559Z,88.70
2018-10-09T19:46:06.045Z,87.30
2018-10-09T19:48:32.540Z,86.20
2018-10-09T19:50:59.210Z,84.90
2018-10-09T19:53:25.874Z,85.40
2018-10-09T19:55:53.417Z,85.50
2018-10-09T19:58:20.800Z,87.70
2018-10-09T20:00:47.603Z,90.20
2018-10-09T20:03:14.316Z,89.40
2018-10-09T20:05:41.381Z,89.30
2018-10-09T20:08:07.863Z,89.00
2018-10-09T20:10:34.332Z,87.80
2018-10-09T20:13:01.111Z,87.70
2018-10-09T20:15:28.725Z,86.40
2018-10-09T20:17:55.219Z,87.10
2018-10-09T20:22:54.069Z,86.20
2018-10-09T20:25:20.649Z,87.10
2018-10-09T20:27:47.143Z,87.40
2018-10-09T20:30:13.636Z,87.30
2018-10-09T20:32:40.153Z,87.60
2018-10-09T20:35:06.643Z,87.70
2018-10-09T20:37:33.355Z,85.30
2018-10-09T20:39:59.833Z,86.60
2018-10-09T20:42:26.769Z,85.60
2018-10-09T20:44:53.322Z,87.30
2018-10-09T20:47:19.950Z,87.70
2018-10-09T20:49:46.504Z,87.50
2018-10-09T20:54:45.127Z,89.10
2018-10-09T20:57:11.580Z,89.00
2018-10-09T20:59:39.747Z,89.30
2018-10-09T21:02:07.900Z,89.20
2018-10-09T21:04:34.423Z,89.20
2018-10-09T21:07:00.852Z,88.70
2018-10-09T21:09:27.513Z,88.10
2018-10-09T21:12:01.341Z,87.60
2018-10-09T21:14:27.831Z,87.10
2018-10-09T21:16:54.338Z,90.10
2018-10-09T21:19:21.038Z,90.00
2018-10-09T21:21:47.550Z,88.40
2018-10-09T21:24:14.028Z,89.60
2018-10-09T21:26:41.944Z,88.70
2018-10-09T21:29:08.436Z,88.80
2018-10-09T21:31:34.957Z,87.40
2018-10-09T21:34:01.467Z,90.00
2018-10-09T21:36:27.976Z,90.20
2018-10-09T21:38:54.652Z,90.10
2018-10-09T21:41:21.150Z,90.00
2018-10-09T21:43:47.717Z,89.90
2018-10-09T21:46:14.356Z,90.00
2018-10-09T21:48:41.188Z,90.70
2018-10-09T21:51:07.701Z,90.60
2018-10-09T21:53:34.388Z,90.30
2018-10-09T21:56:01.154Z,89.90
2018-10-09T21:58:27.645Z,90.00
2018-10-09T22:00:54.286Z,89.30
2018-10-09T22:03:20.782Z,89.10
2018-10-09T22:05:47.276Z,88.90
2018-10-09T22:08:13.807Z,87.90
2018-10-09T22:10:40.406Z,87.40
2018-10-09T22:13:07.020Z,90.00
2018-10-09T22:15:33.480Z,89.90
2018-10-09T22:18:00.255Z,89.60
2018-10-09T22:20:26.756Z,88.90
2018-10-09T22:22:53.412Z,87.90
2018-10-09T22:25:19.993Z,89.20
2018-10-09T22:27:46.494Z,89.20
2018-10-09T22:30:15.774Z,90.10
2018-10-09T22:32:42.229Z,90.00
2018-10-09T22:35:09.083Z,89.80
2018-10-09T22:37:35.556Z,89.10
2018-10-09T22:40:02.026Z,88.30
2018-10-09T22:42:28.533Z,88.30
2018-10-09T22:44:55.951Z,88.50
2018-10-09T22:47:22.473Z,90.70
2018-10-09T22:49:48.984Z,90.80
2018-10-09T22:52:15.504Z,90.80
2018-10-09T22:54:42.029Z,91.10
2018-10-09T22:57:08.504Z,90.80
2018-10-09T22:59:35.032Z,91.10
2018-10-09T23:02:01.763Z,90.40
2018-10-09T23:04:28.289Z,90.90
2018-10-09T23:06:54.813Z,91.00
2018-10-09T23:09:21.304Z,91.80
2018-10-09T23:11:47.803Z,91.80
2018-10-09T23:14:14.458Z,92.00
2018-10-09T23:16:40.940Z,92.70
2018-10-09T23:19:07.467Z,91.80
2018-10-09T23:21:34.032Z,91.10
2018-10-09T23:24:03.317Z,91.30
2018-10-09T23:26:31.124Z,92.10
2018-10-09T23:29:00.177Z,90.50
2018-10-09T23:31:27.433Z,89.50
2018-10-09T23:33:55.585Z,90.20
2018-10-09T23:36:22.637Z,90.70
2018-10-09T23:38:49.188Z,89.90
2018-10-09T23:41:17.100Z,90.40
2018-10-09T23:43:45.589Z,90.60
2018-10-09T23:46:13.054Z,90.80
2018-10-09T23:51:12.022Z,90.40
2018-10-09T23:53:39.484Z,90.90
2018-10-09T23:56:07.125Z,91.20
2018-10-09T23:58:36.295Z,90.40
